CG Thunder Bay — NNTB — position and weather

sailwx.info

Track history (hours):
 
Tides and Currents Weather Stations Pressure Air Temp Water Temp Dewpoint Dewpoint Depression Visibility Wind Speed Wind Dir Waves Ship Positions

CG Thunder Bay

Last reported at 2017-Sep-19 18:30 UTC. Time now 2017-Sep-19 18:41 UTC.
Position N 40°44' W 073°58'.

Length 42 m; draft 4 m.

Type: Military. MMSI: 366999983.

Date/timePositionNaut miles runAvg speedWind from/ knotsBaromVisibWave heightAir tempDewpointWater temp
2017-Sep-19 18:30N 40°44' W 073°58'0 0.0
2017-Sep-19 18:00N 40°44' W 073°58'0 0.0
2017-Sep-19 17:30N 40°44' W 073°58'0 0.0
2017-Sep-19 17:00N 40°44' W 073°58'0 0.0
2017-Sep-19 16:30N 40°44' W 073°58'0 0.0
2017-Sep-19 15:59N 40°44' W 073°58'0 0.0
2017-Sep-19 15:29N 40°44' W 073°58'0 0.0
2017-Sep-19 15:00N 40°44' W 073°58'0 0.0
2017-Sep-19 14:30N 40°44' W 073°58'0 0.1
2017-Sep-19 13:57N 40°44' W 073°58'0 0.1
2017-Sep-19 13:30N 40°44' W 073°58'0 0.0
2017-Sep-19 12:57N 40°44' W 073°58'0 0.0
2017-Sep-19 12:15N 40°44' W 073°58'0 0.0
2017-Sep-19 11:51N 40°44' W 073°58'0 0.1
2017-Sep-19 11:30N 40°44' W 073°58'0 0.0
2017-Sep-19 11:00N 40°44' W 073°58'0 0.0
2017-Sep-19 10:30N 40°44' W 073°58'0 0.0
2017-Sep-19 10:00N 40°44' W 073°58'0 0.0
2017-Sep-19 09:30N 40°44' W 073°58'0 0.0
2017-Sep-19 09:00N 40°44' W 073°58'0 0.1
2017-Sep-19 08:29N 40°44' W 073°58'0 0.1
2017-Sep-19 07:59N 40°44' W 073°58'0 0.0
2017-Sep-19 07:30N 40°44' W 073°58'0 0.0
2017-Sep-19 07:00N 40°44' W 073°58'0 0.0
2017-Sep-19 06:30N 40°44' W 073°58'0 0.0
2017-Sep-19 06:00N 40°44' W 073°58'0 0.0
2017-Sep-19 05:30N 40°44' W 073°58'0 0.0
2017-Sep-19 05:00N 40°44' W 073°58'0 0.0
2017-Sep-19 04:30N 40°44' W 073°58'0 0.0
2017-Sep-19 04:00N 40°44' W 073°58'0 0.0
2017-Sep-19 03:30N 40°44' W 073°58'0 0.0
2017-Sep-19 03:00N 40°44' W 073°58'0 0.0
2017-Sep-19 02:30N 40°44' W 073°58'0 0.0
2017-Sep-19 02:00N 40°44' W 073°58'0 0.1
2017-Sep-19 01:30N 40°44' W 073°58'0 0.0
2017-Sep-19 01:00N 40°44' W 073°58'0 0.0
2017-Sep-19 00:30N 40°44' W 073°58'0 0.0
2017-Sep-18 23:57N 40°44' W 073°58'0 0.0
2017-Sep-18 23:30N 40°44' W 073°58'0 0.0
2017-Sep-18 22:58N 40°44' W 073°58'0 0.0
2017-Sep-18 22:28N 40°44' W 073°58'0 0.0
2017-Sep-18 21:58N 40°44' W 073°58'0 0.0
2017-Sep-18 21:28N 40°44' W 073°58'0 0.0
2017-Sep-18 20:58N 40°44' W 073°58'0 0.0
2017-Sep-18 20:25N 40°44' W 073°58'0 0.0
2017-Sep-18 19:55N 40°44' W 073°58'0 0.1
2017-Sep-18 19:29N 40°44' W 073°58'0 0.0
2017-Sep-18 18:55N 40°44' W 073°58'0 0.0
2017-Sep-18 18:29N 40°44' W 073°58'0 0.0
2017-Sep-18 17:59N 40°44' W 073°58'0 0.0
2017-Sep-18 17:29N 40°44' W 073°58'0 0.0
2017-Sep-18 16:59N 40°44' W 073°58'0 0.0
2017-Sep-18 16:28N 40°44' W 073°58'0 0.0
2017-Sep-18 15:59N 40°44' W 073°58'0 0.0
2017-Sep-18 15:26N 40°44' W 073°58'0 0.0
2017-Sep-18 14:58N 40°44' W 073°58'0 0.0
2017-Sep-18 14:28N 40°44' W 073°58'0 0.0
2017-Sep-18 13:56N 40°44' W 073°58'0 0.0
2017-Sep-18 13:28N 40°44' W 073°58'0 0.1
2017-Sep-18 12:55N 40°44' W 073°58'0 0.0
2017-Sep-18 12:25N 40°44' W 073°58'0 0.0
2017-Sep-18 11:58N 40°44' W 073°58'0 0.2
2017-Sep-18 11:30N 40°44' W 073°58'0 0.0
2017-Sep-16 18:43N 40°44' W 073°58'0 0.0
2017-Sep-16 18:28N 40°44' W 073°58'0 0.4
2017-Sep-16 18:00N 40°45' W 073°58'4 7.2
2017-Sep-16 17:30N 40°42' W 074°01'610.9
2017-Sep-16 17:00N 40°47' W 073°59'612.7
2017-Sep-16 16:30N 40°53' W 073°56'2 0.1
2017-Sep-15 14:26N 40°55' W 073°55'4 8.9
2017-Sep-15 14:00N 40°52' W 073°57'4 8.0
2017-Sep-15 13:30N 40°48' W 073°59'4 8.4
2017-Sep-15 13:00N 40°44' W 074°01'4 8.5
2017-Sep-15 12:30N 40°40' W 074°03'2 3.5
2017-Sep-15 11:59N 40°40' W 074°05'0 0.0
2017-Sep-13 15:47N 40°40' W 074°05'0 0.3
2017-Sep-13 15:30N 40°40' W 074°05'3 6.5
2017-Sep-13 15:00N 40°42' W 074°01'4 7.0
2017-Sep-13 14:30N 40°44' W 073°58'4 9.0
2017-Sep-13 14:00N 40°48' W 073°54'4 8.5
2017-Sep-13 13:30N 40°48' W 073°49'2 0.7
2017-Sep-13 10:47N 40°49' W 073°47'39 2.2
2017-Sep-12 17:10N 41°06' W 072°60'210.8
2017-Sep-12 17:00N 41°07' W 072°58'510.2
2017-Sep-12 16:30N 41°07' W 072°51'611.3
2017-Sep-12 16:00N 41°08' W 072°44'511.0
2017-Sep-12 15:30N 41°09' W 072°37'510.9
2017-Sep-12 15:00N 41°10' W 072°29'610.8
2017-Sep-12 14:30N 41°12' W 072°22'5 9.8
2017-Sep-12 13:59N 41°13' W 072°16'  
Track history (hours):
 
Tides and Currents Weather Stations Pressure Air Temp Water Temp Dewpoint Dewpoint Depression Visibility Wind Speed Wind Dir Waves Ship Positions

CG Thunder Bay

Last reported at 2017-Sep-19 18:30 UTC. Time now 2017-Sep-19 18:41 UTC.
Position N 40°44' W 073°58'.

Length 42 m; draft 4 m.

Type: Military. MMSI: 366999983.

Date/timePositionNaut miles runAvg speedWind from/ knotsBaromVisibWave heightAir tempDewpointWater temp
2017-Sep-19 18:30N 40°44' W 073°58'0 0.0
2017-Sep-19 18:00N 40°44' W 073°58'0 0.0
2017-Sep-19 17:30N 40°44' W 073°58'0 0.0
2017-Sep-19 17:00N 40°44' W 073°58'0 0.0
2017-Sep-19 16:30N 40°44' W 073°58'0 0.0
2017-Sep-19 15:59N 40°44' W 073°58'0 0.0
2017-Sep-19 15:29N 40°44' W 073°58'0 0.0
2017-Sep-19 15:00N 40°44' W 073°58'0 0.0
2017-Sep-19 14:30N 40°44' W 073°58'0 0.1
2017-Sep-19 13:57N 40°44' W 073°58'0 0.1
2017-Sep-19 13:30N 40°44' W 073°58'0 0.0
2017-Sep-19 12:57N 40°44' W 073°58'0 0.0
2017-Sep-19 12:15N 40°44' W 073°58'0 0.0
2017-Sep-19 11:51N 40°44' W 073°58'0 0.1
2017-Sep-19 11:30N 40°44' W 073°58'0 0.0
2017-Sep-19 11:00N 40°44' W 073°58'0 0.0
2017-Sep-19 10:30N 40°44' W 073°58'0 0.0
2017-Sep-19 10:00N 40°44' W 073°58'0 0.0
2017-Sep-19 09:30N 40°44' W 073°58'0 0.0
2017-Sep-19 09:00N 40°44' W 073°58'0 0.1
2017-Sep-19 08:29N 40°44' W 073°58'0 0.1
2017-Sep-19 07:59N 40°44' W 073°58'0 0.0
2017-Sep-19 07:30N 40°44' W 073°58'0 0.0
2017-Sep-19 07:00N 40°44' W 073°58'0 0.0
2017-Sep-19 06:30N 40°44' W 073°58'0 0.0
2017-Sep-19 06:00N 40°44' W 073°58'0 0.0
2017-Sep-19 05:30N 40°44' W 073°58'0 0.0
2017-Sep-19 05:00N 40°44' W 073°58'0 0.0
2017-Sep-19 04:30N 40°44' W 073°58'0 0.0
2017-Sep-19 04:00N 40°44' W 073°58'0 0.0
2017-Sep-19 03:30N 40°44' W 073°58'0 0.0
2017-Sep-19 03:00N 40°44' W 073°58'0 0.0
2017-Sep-19 02:30N 40°44' W 073°58'0 0.0
2017-Sep-19 02:00N 40°44' W 073°58'0 0.1
2017-Sep-19 01:30N 40°44' W 073°58'0 0.0
2017-Sep-19 01:00N 40°44' W 073°58'0 0.0
2017-Sep-19 00:30N 40°44' W 073°58'0 0.0
2017-Sep-18 23:57N 40°44' W 073°58'0 0.0
2017-Sep-18 23:30N 40°44' W 073°58'0 0.0
2017-Sep-18 22:58N 40°44' W 073°58'0 0.0
2017-Sep-18 22:28N 40°44' W 073°58'0 0.0
2017-Sep-18 21:58N 40°44' W 073°58'0 0.0
2017-Sep-18 21:28N 40°44' W 073°58'0 0.0
2017-Sep-18 20:58N 40°44' W 073°58'0 0.0
2017-Sep-18 20:25N 40°44' W 073°58'0 0.0
2017-Sep-18 19:55N 40°44' W 073°58'0 0.1
2017-Sep-18 19:29N 40°44' W 073°58'0 0.0
2017-Sep-18 18:55N 40°44' W 073°58'0 0.0
2017-Sep-18 18:29N 40°44' W 073°58'0 0.0
2017-Sep-18 17:59N 40°44' W 073°58'0 0.0
2017-Sep-18 17:29N 40°44' W 073°58'0 0.0
2017-Sep-18 16:59N 40°44' W 073°58'0 0.0
2017-Sep-18 16:28N 40°44' W 073°58'0 0.0
2017-Sep-18 15:59N 40°44' W 073°58'0 0.0
2017-Sep-18 15:26N 40°44' W 073°58'0 0.0
2017-Sep-18 14:58N 40°44' W 073°58'0 0.0
2017-Sep-18 14:28N 40°44' W 073°58'0 0.0
2017-Sep-18 13:56N 40°44' W 073°58'0 0.0
2017-Sep-18 13:28N 40°44' W 073°58'0 0.1
2017-Sep-18 12:55N 40°44' W 073°58'0 0.0
2017-Sep-18 12:25N 40°44' W 073°58'0 0.0
2017-Sep-18 11:58N 40°44' W 073°58'0 0.2
2017-Sep-18 11:30N 40°44' W 073°58'0 0.0
2017-Sep-16 18:43N 40°44' W 073°58'0 0.0
2017-Sep-16 18:28N 40°44' W 073°58'0 0.4
2017-Sep-16 18:00N 40°45' W 073°58'4 7.2
2017-Sep-16 17:30N 40°42' W 074°01'610.9
2017-Sep-16 17:00N 40°47' W 073°59'612.7
2017-Sep-16 16:30N 40°53' W 073°56'2 0.1
2017-Sep-15 14:26N 40°55' W 073°55'4 8.9
2017-Sep-15 14:00N 40°52' W 073°57'4 8.0
2017-Sep-15 13:30N 40°48' W 073°59'4 8.4
2017-Sep-15 13:00N 40°44' W 074°01'4 8.5
2017-Sep-15 12:30N 40°40' W 074°03'2 3.5
2017-Sep-15 11:59N 40°40' W 074°05'0 0.0
2017-Sep-13 15:47N 40°40' W 074°05'0 0.3
2017-Sep-13 15:30N 40°40' W 074°05'3 6.5
2017-Sep-13 15:00N 40°42' W 074°01'4 7.0
2017-Sep-13 14:30N 40°44' W 073°58'4 9.0
2017-Sep-13 14:00N 40°48' W 073°54'4 8.5
2017-Sep-13 13:30N 40°48' W 073°49'2 0.7
2017-Sep-13 10:47N 40°49' W 073°47'39 2.2
2017-Sep-12 17:10N 41°06' W 072°60'210.8
2017-Sep-12 17:00N 41°07' W 072°58'510.2
2017-Sep-12 16:30N 41°07' W 072°51'611.3
2017-Sep-12 16:00N 41°08' W 072°44'511.0
2017-Sep-12 15:30N 41°09' W 072°37'510.9
2017-Sep-12 15:00N 41°10' W 072°29'610.8
2017-Sep-12 14:30N 41°12' W 072°22'5 9.8
2017-Sep-12 13:59N 41°13' W 072°16'  

Dump ship's entire track history